Time;durP1;ratioP1;P1;durP2;ratioP2;P2;SDS_P1;SDS_P2;PMS_P1;PMS_P2;Temp;Humidity;BMP_temperature;BMP_pressure;BME280_temperature;BME280_humidity;BME280_pressure;Samples;Min_cycle;Max_cycle;Signal;HPM_P1;HPM_P2
2022/12/01 00:00:51;;;;;;;12.60;5.75;;;5.80;99.90;;;;;;5029006;28;20092;-66
2022/12/01 00:03:17;;;;;;;19.73;5.93;;;5.80;99.90;;;;;;5017287;28;20044;-66
2022/12/01 00:05:43;;;;;;;19.15;6.32;;;5.90;99.90;;;;;;5031481;28;20038;-66
2022/12/01 00:08:09;;;;;;;12.25;4.80;;;5.80;99.90;;;;;;5002141;28;20121;-66
2022/12/01 00:10:34;;;;;;;10.57;5.13;;;5.80;99.90;;;;;;4986373;28;20097;-66
2022/12/01 00:13:03;;;;;;;16.15;4.93;;;5.80;99.90;;;;;;4995153;28;20045;-66
2022/12/01 00:15:35;;;;;;;19.67;6.35;;;5.80;99.90;;;;;;4995731;28;20026;-66
2022/12/01 00:18:06;;;;;;;17.25;6.15;;;5.80;99.90;;;;;;5003686;28;20029;-66
2022/12/01 00:20:33;;;;;;;;;;;5.80;99.90;;;;;;5006686;28;20069;-67
2022/12/01 00:22:59;;;;;;;10.75;4.90;;;5.90;99.90;;;;;;5024454;28;19917;-66
2022/12/01 00:25:25;;;;;;;15.13;5.43;;;5.90;99.90;;;;;;5008478;28;20030;-66
2022/12/01 00:27:52;;;;;;;14.48;5.13;;;6.00;99.90;;;;;;4992693;28;20042;-67
2022/12/01 00:30:20;;;;;;;17.77;6.28;;;6.00;99.90;;;;;;5013377;28;20196;-66
2022/12/01 00:32:46;;;;;;;20.08;4.95;;;6.00;99.90;;;;;;5009740;28;20441;-66
2022/12/01 00:35:13;;;;;;;14.35;6.65;;;6.00;99.90;;;;;;5005212;28;20108;-67
2022/12/01 00:37:39;;;;;;;18.88;6.50;;;6.10;99.90;;;;;;5010996;28;20048;-66
2022/12/01 00:40:06;;;;;;;17.52;5.28;;;6.10;99.90;;;;;;5004573;28;20025;-67
2022/12/01 00:42:32;;;;;;;15.38;6.32;;;6.10;99.90;;;;;;5011008;28;20172;-66
2022/12/01 00:44:58;;;;;;;10.73;4.57;;;6.10;99.90;;;;;;4983068;28;20571;-66
2022/12/01 00:47:24;;;;;;;18.45;6.47;;;6.10;99.90;;;;;;4973987;28;20336;-66
2022/12/01 00:49:51;;;;;;;23.42;5.85;;;6.10;99.90;;;;;;5005402;28;20057;-66
2022/12/01 00:52:18;;;;;;;12.23;6.00;;;6.10;99.90;;;;;;4993525;28;20100;-67
2022/12/01 00:54:44;;;;;;;16.55;6.10;;;6.20;99.90;;;;;;4995575;28;20030;-67
2022/12/01 00:57:10;;;;;;;12.73;5.70;;;6.20;99.90;;;;;;5010952;28;20034;-66
2022/12/01 00:59:41;;;;;;;15.27;5.80;;;6.20;99.90;;;;;;4997033;28;20444;-66
2022/12/01 01:02:08;;;;;;;18.05;6.75;;;6.20;99.90;;;;;;4993982;28;20857;-66
2022/12/01 01:04:35;;;;;;;13.75;5.25;;;6.20;99.90;;;;;;4996308;28;20060;-66
2022/12/01 01:07:01;;;;;;;15.80;5.53;;;6.20;99.90;;;;;;5009695;28;20485;-66
2022/12/01 01:09:27;;;;;;;17.33;5.70;;;6.20;99.90;;;;;;4996704;28;20355;-66
2022/12/01 01:11:53;;;;;;;14.07;4.97;;;6.20;99.90;;;;;;5009475;28;20497;-66
2022/12/01 01:14:21;;;;;;;17.40;4.88;;;6.30;99.90;;;;;;4996153;28;20048;-66
2022/12/01 01:16:47;;;;;;;16.60;6.47;;;6.30;99.90;;;;;;5010586;28;20052;-67
2022/12/01 01:19:13;;;;;;;15.70;5.82;;;6.20;99.90;;;;;;4996788;28;20382;-66
2022/12/01 01:21:39;;;;;;;13.48;5.70;;;6.30;99.90;;;;;;5011385;28;20040;-66
2022/12/01 01:24:05;;;;;;;11.98;5.82;;;6.20;99.90;;;;;;4999049;28;20037;-66
2022/12/01 01:26:32;;;;;;;21.63;6.53;;;6.20;99.90;;;;;;5014584;28;20054;-66
2022/12/01 01:29:01;;;;;;;14.88;7.43;;;6.10;99.90;;;;;;5000673;28;20570;-66
2022/12/01 01:31:29;;;;;;;14.80;5.93;;;6.10;99.90;;;;;;5013267;28;20169;-66
2022/12/01 01:33:56;;;;;;;15.50;6.28;;;6.10;99.90;;;;;;5000243;28;20069;-66
2022/12/01 01:36:22;;;;;;;18.42;6.03;;;6.00;99.90;;;;;;5013215;28;20371;-66
2022/12/01 01:38:52;;;;;;;15.38;6.50;;;6.00;99.90;;;;;;4998752;28;20114;-66
2022/12/01 01:41:19;;;;;;;14.65;5.60;;;6.10;99.90;;;;;;5014524;28;20210;-65
2022/12/01 01:43:52;;;;;;;9.90;4.60;;;6.00;99.90;;;;;;5000274;28;20039;-67
2022/12/01 01:46:29;;;;;;;18.02;7.07;;;6.00;99.90;;;;;;5014304;28;20034;-67
2022/12/01 01:49:10;;;;;;;9.20;4.72;;;6.00;99.90;;;;;;4998947;28;20055;-67
2022/12/01 01:51:50;;;;;;;13.03;7.60;;;6.00;99.90;;;;;;5013411;28;20110;-67
2022/12/01 01:54:27;;;;;;;23.13;5.63;;;6.10;99.90;;;;;;4998534;28;20054;-67
2022/12/01 01:56:55;;;;;;;16.83;5.85;;;6.10;99.90;;;;;;4997449;28;20049;-67
2022/12/01 01:59:31;;;;;;;15.45;5.50;;;6.10;99.90;;;;;;5000114;28;20026;-67
2022/12/01 02:02:09;;;;;;;14.13;5.75;;;6.10;99.90;;;;;;5012760;28;20779;-67
2022/12/01 02:04:39;;;;;;;15.90;6.43;;;6.10;99.90;;;;;;4988442;28;20026;-67
2022/12/01 02:07:07;;;;;;;17.58;5.97;;;6.10;99.90;;;;;;4986352;28;20030;-67
2022/12/01 02:09:34;;;;;;;24.65;7.00;;;6.00;99.90;;;;;;4990141;28;20439;-67
2022/12/01 02:12:46;;;;;;;15.45;6.65;;;6.00;99.90;;;;;;5010242;28;20514;-66
2022/12/01 02:15:23;;;;;;;9.80;5.10;;;5.90;99.90;;;;;;4999246;28;20042;-66
2022/12/01 02:18:16;;;;;;;11.52;5.18;;;5.90;99.90;;;;;;5013117;28;20664;-66
2022/12/01 02:20:57;;;;;;;13.40;6.30;;;5.90;99.90;;;;;;5005937;28;20037;-66
2022/12/01 02:23:40;;;;;;;14.70;5.22;;;5.90;99.90;;;;;;5004468;28;20042;-66
2022/12/01 02:26:29;;;;;;;15.68;5.75;;;5.90;99.90;;;;;;5013402;28;20030;-66
2022/12/01 02:29:15;;;;;;;11.02;5.65;;;5.90;99.90;;;;;;4999753;28;20050;-66
2022/12/01 02:33:01;;;;;;;10.45;5.50;;;6.00;99.90;;;;;;5013573;28;20034;-66
2022/12/01 02:36:11;;;;;;;12.70;5.50;;;6.00;99.90;;;;;;4994428;28;20062;-66
2022/12/01 02:38:54;;;;;;;15.02;5.75;;;6.00;99.90;;;;;;4975039;28;20038;-66
2022/12/01 02:41:47;;;;;;;14.10;5.70;;;6.00;99.90;;;;;;5011961;28;20029;-66
2022/12/01 02:44:21;;;;;;;10.75;4.82;;;6.00;99.90;;;;;;4998233;28;20061;-66
2022/12/01 02:46:55;;;;;;;18.42;6.45;;;6.00;99.90;;;;;;5013315;28;20041;-66
2022/12/01 02:49:34;;;;;;;14.30;8.05;;;6.00;99.90;;;;;;5014034;28;20058;-66
2022/12/01 02:52:04;;;;;;;16.85;6.80;;;5.90;99.90;;;;;;5011770;28;20018;-66
2022/12/01 02:54:31;;;;;;;19.60;6.70;;;6.00;99.90;;;;;;5003430;28;20034;-66
2022/12/01 02:56:57;;;;;;;15.82;5.40;;;6.00;99.90;;;;;;5011760;28;20026;-66
2022/12/01 02:59:23;;;;;;;10.57;5.30;;;6.00;99.90;;;;;;4998668;28;20048;-65
2022/12/01 03:02:07;;;;;;;14.98;5.40;;;6.00;99.90;;;;;;5011921;28;20030;-66
2022/12/01 03:04:43;;;;;;;18.85;7.28;;;6.00;99.90;;;;;;4998449;28;20451;-66
2022/12/01 03:08:01;;;;;;;13.30;5.80;;;6.00;99.90;;;;;;5005151;28;20068;-66
2022/12/01 03:10:53;;;;;;;17.13;6.15;;;5.90;99.90;;;;;;5002470;28;20061;-66
2022/12/01 03:13:53;;;;;;;14.45;6.78;;;6.00;99.90;;;;;;4987778;28;20442;-67
2022/12/01 03:16:32;;;;;;;15.85;5.45;;;6.00;99.90;;;;;;5001104;28;20358;-67
2022/12/01 03:19:07;;;;;;;18.00;6.47;;;6.00;99.90;;;;;;4998448;28;20038;-67
2022/12/01 03:22:15;;;;;;;15.60;7.25;;;6.00;99.90;;;;;;5011461;28;20470;-67
2022/12/01 03:24:46;;;;;;;11.77;5.60;;;5.90;99.90;;;;;;5000564;28;20050;-67
2022/12/01 03:27:14;;;;;;;11.70;5.60;;;5.90;99.90;;;;;;5003883;28;20026;-67
2022/12/01 03:29:47;;;;;;;23.38;5.78;;;5.90;99.90;;;;;;4997008;28;20038;-67
2022/12/01 03:32:36;;;;;;;14.60;5.53;;;6.00;99.90;;;;;;4988207;28;20040;-67
2022/12/01 03:35:11;;;;;;;13.18;6.68;;;6.00;99.90;;;;;;4997617;28;20030;-66
2022/12/01 03:38:07;;;;;;;18.42;6.63;;;5.90;99.90;;;;;;5012569;28;20057;-66
2022/12/01 03:40:36;;;;;;;16.23;5.03;;;5.90;99.90;;;;;;5003268;28;20037;-66
2022/12/01 03:43:15;;;;;;;13.40;5.57;;;5.90;99.90;;;;;;5007562;28;20037;-66
2022/12/01 03:46:07;;;;;;;11.05;6.30;;;5.60;99.90;;;;;;5019726;28;20141;-65
2022/12/01 03:48:33;;;;;;;11.38;4.68;;;5.60;99.90;;;;;;4972502;28;20117;-66
2022/12/01 03:51:46;;;;;;;10.65;4.68;;;5.40;99.90;;;;;;5025153;28;20038;-66
2022/12/01 03:54:35;;;;;;;8.88;5.07;;;5.40;99.90;;;;;;5002689;28;20057;-66
2022/12/01 03:57:08;;;;;;;15.90;4.95;;;5.40;99.90;;;;;;5010636;28;20108;-66
2022/12/01 03:59:36;;;;;;;12.32;5.57;;;5.30;99.90;;;;;;4996520;28;20045;-67
2022/12/01 04:02:06;;;;;;;11.35;4.70;;;5.20;99.90;;;;;;5007676;28;20470;-65
2022/12/01 04:04:32;;;;;;;14.13;4.88;;;5.20;99.90;;;;;;4980693;28;20061;-65
2022/12/01 04:06:57;;;;;;;13.55;5.88;;;5.20;99.90;;;;;;4993690;28;20062;-66
2022/12/01 04:09:23;;;;;;;13.70;5.35;;;5.20;99.90;;;;;;4989087;28;20037;-65
2022/12/01 04:14:33;;;;;;;8.93;4.72;;;5.20;99.90;;;;;;4995452;28;20120;-66
2022/12/01 04:16:58;;;;;;;8.65;4.22;;;5.20;99.90;;;;;;5008937;28;20121;-66
2022/12/01 04:19:27;;;;;;;13.90;5.75;;;5.20;99.90;;;;;;4992977;28;20077;-65
2022/12/01 04:21:52;;;;;;;9.02;3.92;;;5.10;99.90;;;;;;5009227;28;20444;-66
2022/12/01 04:24:18;;;;;;;10.15;5.05;;;5.10;99.90;;;;;;4997294;28;20030;-66
2022/12/01 04:26:44;;;;;;;14.35;6.40;;;5.10;99.90;;;;;;4994142;28;20044;-66
2022/12/01 04:29:11;;;;;;;13.93;5.75;;;5.10;99.90;;;;;;4989411;28;20403;-66
2022/12/01 04:31:38;;;;;;;11.15;5.03;;;5.00;99.90;;;;;;5002098;28;20037;-66
2022/12/01 04:34:04;;;;;;;12.48;5.75;;;5.00;99.90;;;;;;4995064;28;20053;-66
2022/12/01 04:36:33;;;;;;;6.60;3.85;;;5.00;99.90;;;;;;4994659;28;20034;-66
2022/12/01 04:38:59;;;;;;;14.15;5.50;;;5.00;99.90;;;;;;4989060;28;20100;-66
2022/12/01 04:41:25;;;;;;;13.80;4.93;;;5.00;99.90;;;;;;4981949;28;20394;-66
2022/12/01 04:43:55;;;;;;;15.23;5.97;;;4.90;99.90;;;;;;4987405;28;20097;-66
2022/12/01 04:46:22;;;;;;;15.68;6.15;;;4.90;99.90;;;;;;5009776;28;20060;-66
2022/12/01 04:48:47;;;;;;;13.15;6.10;;;4.90;99.90;;;;;;4999622;28;20031;-66
2022/12/01 04:51:13;;;;;;;9.27;4.53;;;4.90;99.90;;;;;;5009778;28;20033;-66
2022/12/01 04:53:39;;;;;;;11.95;5.30;;;4.80;99.90;;;;;;4999625;28;20039;-66
2022/12/01 04:56:05;;;;;;;14.82;5.75;;;4.80;99.90;;;;;;5008361;28;20034;-66
2022/12/01 04:58:32;;;;;;;8.77;4.40;;;4.80;99.90;;;;;;5002503;28;20029;-66
2022/12/01 05:01:09;;;;;;;11.05;5.20;;;4.80;99.90;;;;;;5007222;28;20053;-65
2022/12/01 05:03:37;;;;;;;12.05;4.88;;;4.80;99.90;;;;;;4984593;28;20078;-69
2022/12/01 05:06:08;;;;;;;13.30;5.25;;;4.80;99.90;;;;;;4986580;28;20026;-66
2022/12/01 05:08:34;;;;;;;11.10;5.68;;;4.70;99.90;;;;;;4980880;28;20034;-66
2022/12/01 05:11:00;;;;;;;13.63;6.15;;;4.70;99.90;;;;;;4980359;28;21621;-65
2022/12/01 05:13:26;;;;;;;15.60;6.03;;;4.80;99.90;;;;;;4987681;28;20041;-65
2022/12/01 05:15:52;;;;;;;11.30;3.92;;;4.80;99.90;;;;;;5004050;28;20066;-66
2022/12/01 05:18:18;;;;;;;9.10;5.40;;;4.80;99.90;;;;;;4987234;28;20496;-65
2022/12/01 05:20:56;;;;;;;14.27;5.50;;;4.80;99.90;;;;;;4994867;28;20088;-65
2022/12/01 05:23:23;;;;;;;11.18;4.35;;;4.70;99.90;;;;;;5004635;28;20027;-65
2022/12/01 05:25:49;;;;;;;8.35;3.97;;;4.80;99.90;;;;;;4996674;28;20039;-64
2022/12/01 05:28:14;;;;;;;12.15;5.32;;;4.80;99.90;;;;;;5006704;28;20046;-65
2022/12/01 05:30:40;;;;;;;20.30;7.00;;;4.80;99.90;;;;;;4995112;28;20038;-65
2022/12/01 05:33:06;;;;;;;10.52;4.90;;;4.80;99.90;;;;;;5008695;28;20366;-63
2022/12/01 05:35:33;;;;;;;15.80;5.57;;;4.80;99.90;;;;;;4996645;28;20138;-64
2022/12/01 05:37:58;;;;;;;11.70;4.72;;;4.80;99.90;;;;;;4982507;28;20023;-64
2022/12/01 05:40:24;;;;;;;9.82;4.85;;;4.80;99.90;;;;;;4982276;28;20394;-65
2022/12/01 05:42:50;;;;;;;23.83;5.57;;;4.70;99.90;;;;;;4981446;28;20085;-65
2022/12/01 05:45:16;;;;;;;13.60;5.55;;;4.70;99.90;;;;;;4990544;28;20108;-64
2022/12/01 05:47:41;;;;;;;8.68;4.40;;;4.80;99.90;;;;;;4989442;28;20479;-65
2022/12/01 05:50:08;;;;;;;10.95;5.43;;;4.80;99.90;;;;;;4993807;28;20026;-64
2022/12/01 05:52:34;;;;;;;13.38;5.63;;;4.80;99.90;;;;;;5005615;28;20044;-65
2022/12/01 05:55:02;;;;;;;14.20;5.60;;;4.80;99.90;;;;;;4999552;28;20498;-63
2022/12/01 05:57:28;;;;;;;9.57;4.22;;;4.70;99.90;;;;;;5028719;22;20401;-66
2022/12/01 05:59:54;;;;;;;8.73;4.80;;;4.60;99.90;;;;;;5044318;28;20040;-65
2022/12/01 06:02:19;;;;;;;24.65;6.15;;;4.60;99.90;;;;;;5040213;28;20041;-63
2022/12/01 06:04:45;;;;;;;13.77;4.93;;;4.60;99.90;;;;;;5040917;28;20048;-63
2022/12/01 06:07:11;;;;;;;11.05;5.53;;;4.60;99.90;;;;;;5022020;28;20021;-65
2022/12/01 06:09:37;;;;;;;13.65;6.03;;;4.60;99.90;;;;;;5044891;28;20096;-65
2022/12/01 06:12:02;;;;;;;11.27;5.05;;;4.60;99.90;;;;;;5038399;28;20044;-65
2022/12/01 06:14:28;;;;;;;21.10;7.15;;;4.60;99.90;;;;;;5043830;28;20033;-64
2022/12/01 06:16:54;;;;;;;14.02;5.68;;;4.60;99.90;;;;;;5030643;28;20036;-64
2022/12/01 06:19:19;;;;;;;11.20;5.80;;;4.60;99.90;;;;;;5041604;28;20091;-64
2022/12/01 06:21:45;;;;;;;13.65;4.28;;;4.60;99.90;;;;;;5026717;28;20030;-64
2022/12/01 06:24:11;;;;;;;16.10;6.80;;;4.60;99.90;;;;;;5035889;28;20497;-63
2022/12/01 06:26:36;;;;;;;14.88;6.28;;;4.70;99.90;;;;;;5030739;28;21401;-63
2022/12/01 06:29:02;;;;;;;9.48;6.03;;;4.60;99.90;;;;;;5045802;28;20032;-63
2022/12/01 06:31:28;;;;;;;12.15;6.10;;;4.70;99.90;;;;;;5047091;28;20033;-64
2022/12/01 06:33:54;;;;;;;14.65;5.90;;;4.70;99.90;;;;;;5042058;28;20120;-64
2022/12/01 06:36:19;;;;;;;11.25;4.90;;;4.60;99.90;;;;;;5049242;28;20504;-64
2022/12/01 06:38:45;;;;;;;13.85;5.88;;;4.60;99.90;;;;;;5037039;28;20085;-63
2022/12/01 06:41:11;;;;;;;8.52;3.63;;;4.60;99.90;;;;;;5051125;28;20458;-63
2022/12/01 06:43:39;;;;;;;12.98;6.15;;;4.60;99.90;;;;;;5036551;28;20033;-64
2022/12/01 06:46:05;;;;;;;20.30;6.57;;;4.60;99.90;;;;;;5035062;28;20438;-64
2022/12/01 06:48:31;;;;;;;14.15;5.13;;;4.60;99.90;;;;;;5036242;28;20028;-64
2022/12/01 06:50:58;;;;;;;12.90;5.40;;;4.60;99.90;;;;;;5051245;28;20381;-64
2022/12/01 06:53:26;;;;;;;10.50;4.78;;;4.60;99.90;;;;;;5036546;28;20501;-64
2022/12/01 06:55:51;;;;;;;13.68;5.00;;;4.60;99.90;;;;;;5050233;28;20037;-64
2022/12/01 06:58:17;;;;;;;11.93;5.53;;;4.70;99.90;;;;;;5041092;28;20021;-64
2022/12/01 07:00:43;;;;;;;14.98;3.92;;;4.70;99.90;;;;;;5032413;28;20496;-64
2022/12/01 07:03:09;;;;;;;12.07;4.97;;;4.70;99.90;;;;;;5039204;28;20136;-64
2022/12/01 07:05:35;;;;;;;7.57;3.90;;;4.60;99.90;;;;;;5047631;28;20033;-64
2022/12/01 07:08:01;;;;;;;11.25;4.40;;;4.70;99.90;;;;;;5040314;28;20056;-64
2022/12/01 07:10:27;;;;;;;24.80;5.20;;;4.70;99.90;;;;;;5044044;28;20029;-63
2022/12/01 07:12:55;;;;;;;8.30;4.38;;;4.70;99.90;;;;;;5035551;28;20550;-64
2022/12/01 07:15:23;;;;;;;12.15;5.40;;;4.70;99.90;;;;;;5045787;28;20112;-64
2022/12/01 07:17:49;;;;;;;12.07;5.35;;;4.70;99.90;;;;;;5015879;28;20033;-63
2022/12/01 07:20:15;;;;;;;13.75;5.57;;;4.70;99.90;;;;;;5044204;28;20032;-64
2022/12/01 07:22:41;;;;;;;12.70;5.70;;;4.70;99.90;;;;;;5045878;28;20396;-64
2022/12/01 07:25:08;;;;;;;12.10;4.38;;;4.70;99.90;;;;;;5043747;28;20025;-64
2022/12/01 07:27:34;;;;;;;11.85;4.43;;;4.60;99.90;;;;;;5045635;28;20763;-65
2022/12/01 07:30:00;;;;;;;9.60;4.43;;;4.70;99.90;;;;;;5043592;28;20040;-64
2022/12/01 07:32:26;;;;;;;12.90;5.47;;;4.70;99.90;;;;;;5041052;28;20039;-64
2022/12/01 07:34:51;;;;;;;13.88;4.97;;;4.70;99.90;;;;;;5043238;28;20025;-64
2022/12/01 07:37:17;;;;;;;9.80;4.45;;;4.70;99.90;;;;;;5042041;28;20055;-64
2022/12/01 07:39:43;;;;;;;9.85;4.95;;;4.80;99.90;;;;;;5043336;28;20408;-64
2022/12/01 07:42:08;;;;;;;12.93;5.32;;;4.80;99.90;;;;;;5046504;28;20033;-64
2022/12/01 07:44:34;;;;;;;18.80;4.22;;;4.80;99.90;;;;;;5044358;28;20096;-63
2022/12/01 07:47:00;;;;;;;12.25;5.65;;;4.90;99.90;;;;;;5032814;28;20513;-63
2022/12/01 07:49:26;;;;;;;8.77;4.00;;;4.90;99.90;;;;;;5043059;28;20021;-64
2022/12/01 07:51:51;;;;;;;14.68;4.72;;;5.00;99.90;;;;;;5041945;28;20109;-63
2022/12/01 07:54:19;;;;;;;12.52;4.72;;;5.10;99.90;;;;;;5042803;28;20025;-63
2022/12/01 07:56:44;;;;;;;10.02;3.78;;;5.20;99.90;;;;;;5040120;28;20042;-64
2022/12/01 07:59:11;;;;;;;9.38;4.28;;;5.20;99.90;;;;;;5042660;28;20021;-64
2022/12/01 08:01:37;;;;;;;9.95;4.70;;;5.20;99.90;;;;;;5046312;28;20029;-63
2022/12/01 08:04:03;;;;;;;10.18;4.60;;;5.20;99.90;;;;;;5029231;28;20436;-63
2022/12/01 08:06:29;;;;;;;9.25;5.10;;;5.30;99.90;;;;;;5045332;28;20029;-64
2022/12/01 08:08:55;;;;;;;9.25;3.80;;;5.40;99.90;;;;;;5039587;28;20091;-64
2022/12/01 08:11:25;;;;;;;9.57;5.38;;;5.30;99.90;;;;;;5038652;28;20605;-65
2022/12/01 08:13:52;;;;;;;34.95;4.18;;;5.30;99.90;;;;;;5036866;28;20040;-64
2022/12/01 08:16:21;;;;;;;23.17;11.38;;;5.40;99.90;;;;;;5046617;28;20511;-64
2022/12/01 08:18:47;;;;;;;23.60;9.13;;;5.30;99.90;;;;;;5036036;28;20030;-64
2022/12/01 08:21:17;;;;;;;9.15;5.38;;;5.40;99.90;;;;;;5049092;28;20028;-64
2022/12/01 08:23:43;;;;;;;11.38;5.85;;;5.40;99.90;;;;;;5035243;28;20037;-64
2022/12/01 08:26:18;;;;;;;14.20;5.38;;;5.50;99.90;;;;;;5031821;28;20025;-64
2022/12/01 08:28:45;;;;;;;15.48;5.00;;;5.50;99.90;;;;;;5036158;28;20033;-64
2022/12/01 08:31:15;;;;;;;10.55;4.30;;;5.50;99.90;;;;;;5049301;28;20029;-65
2022/12/01 08:33:41;;;;;;;13.98;5.22;;;5.50;99.90;;;;;;5034723;28;20034;-64
2022/12/01 08:36:07;;;;;;;10.50;4.68;;;5.50;99.90;;;;;;4993544;28;20028;-65
2022/12/01 08:38:33;;;;;;;9.60;4.97;;;5.40;99.90;;;;;;5024094;28;20030;-64
2022/12/01 08:41:08;;;;;;;12.63;5.60;;;5.40;99.90;;;;;;5049780;28;20450;-64
2022/12/01 08:43:39;;;;;;;10.48;4.97;;;5.40;99.90;;;;;;5033815;28;20099;-64
2022/12/01 08:46:06;;;;;;;11.98;4.53;;;5.30;99.90;;;;;;5050233;28;20090;-64
2022/12/01 08:48:32;;;;;;;15.80;6.57;;;5.30;99.90;;;;;;5033940;28;20511;-64
2022/12/01 08:51:17;;;;;;;23.58;4.97;;;5.30;99.90;;;;;;5032650;28;20036;-64
2022/12/01 08:53:48;;;;;;;10.63;5.05;;;5.40;99.90;;;;;;5035201;28;20510;-64
2022/12/01 08:56:37;;;;;;;13.32;4.70;;;5.30;99.90;;;;;;5048061;28;20527;-64
2022/12/01 08:59:03;;;;;;;16.60;6.05;;;5.30;99.90;;;;;;5040963;28;20505;-64
2022/12/01 09:01:29;;;;;;;18.05;5.10;;;5.40;99.90;;;;;;5037616;28;20030;-64
2022/12/01 09:04:09;;;;;;;9.50;4.57;;;5.40;99.90;;;;;;5038461;28;20120;-65
2022/12/01 09:06:41;;;;;;;21.42;7.28;;;5.40;99.90;;;;;;5044969;28;20029;-64
2022/12/01 09:09:10;;;;;;;9.40;5.35;;;5.40;99.90;;;;;;5030346;28;20033;-65
2022/12/01 09:11:36;;;;;;;9.18;5.03;;;5.50;99.90;;;;;;5019043;28;20029;-64
2022/12/01 09:14:02;;;;;;;15.23;4.00;;;5.40;99.90;;;;;;5030415;28;20033;-64
2022/12/01 09:16:28;;;;;;;11.63;4.10;;;5.40;99.90;;;;;;5044965;28;20121;-64
2022/12/01 09:18:54;;;;;;;12.70;5.93;;;5.50;99.90;;;;;;5039658;28;20974;-64
2022/12/01 09:21:26;;;;;;;14.70;4.80;;;5.50;99.90;;;;;;5047342;28;20381;-65
2022/12/01 09:23:53;;;;;;;13.57;5.13;;;5.60;99.90;;;;;;5037648;28;20044;-64
2022/12/01 09:26:19;;;;;;;14.23;5.45;;;5.60;99.90;;;;;;5046503;28;20056;-65
2022/12/01 09:28:47;;;;;;;10.65;6.03;;;5.50;99.90;;;;;;5034052;28;20397;-65
2022/12/01 09:31:14;;;;;;;12.85;5.28;;;5.50;99.90;;;;;;5048162;28;20037;-66
2022/12/01 09:33:40;;;;;;;13.02;5.05;;;5.60;99.90;;;;;;5034104;28;20040;-69
2022/12/01 09:36:08;;;;;;;16.52;5.20;;;5.60;99.90;;;;;;5049542;28;20029;-66
2022/12/01 09:38:35;;;;;;;11.90;6.22;;;5.60;99.90;;;;;;5023738;28;20029;-64
2022/12/01 09:41:06;;;;;;;9.95;4.95;;;5.70;99.90;;;;;;5032201;28;20032;-65
2022/12/01 09:44:12;;;;;;;9.65;4.30;;;5.70;99.90;;;;;;5037693;28;20033;-66
2022/12/01 09:47:12;;;;;;;13.43;5.05;;;5.80;99.90;;;;;;5013687;28;20038;-67
2022/12/01 09:50:17;;;;;;;19.92;5.40;;;5.70;99.90;;;;;;5024351;28;20036;-64
2022/12/01 09:52:58;;;;;;;15.45;4.70;;;5.80;99.90;;;;;;5036811;28;20035;-65
2022/12/01 09:55:27;;;;;;;10.50;4.35;;;5.80;99.90;;;;;;5047303;28;20024;-68
2022/12/01 09:57:56;;;;;;;17.15;3.90;;;5.90;99.90;;;;;;5042319;28;20033;-65
2022/12/01 10:00:33;;;;;;;7.43;3.72;;;5.90;99.90;;;;;;5019168;28;20040;-65
2022/12/01 10:03:45;;;;;;;8.77;4.07;;;5.90;99.90;;;;;;5040220;28;20079;-65
2022/12/01 10:06:19;;;;;;;7.93;4.07;;;5.80;99.90;;;;;;5013392;28;20076;-66
2022/12/01 10:09:20;;;;;;;17.08;7.10;;;5.90;99.90;;;;;;5026997;28;20559;-65
2022/12/01 10:11:49;;;;;;;17.58;6.10;;;6.00;99.90;;;;;;5038515;28;20084;-65
2022/12/01 10:14:19;;;;;;;21.13;4.35;;;5.90;99.90;;;;;;5051581;28;20021;-67
2022/12/01 10:17:02;;;;;;;15.07;5.72;;;6.00;99.90;;;;;;5043342;28;20505;-69
2022/12/01 10:19:37;;;;;;;12.80;4.55;;;5.90;99.90;;;;;;5051930;28;20036;-70
2022/12/01 10:22:45;;;;;;;29.48;5.78;;;5.90;99.90;;;;;;5043612;28;20021;-66
2022/12/01 10:25:25;;;;;;;7.07;4.20;;;6.10;99.90;;;;;;5037663;28;20027;-66
2022/12/01 10:28:17;;;;;;;12.60;5.03;;;6.00;99.90;;;;;;5042065;28;20037;-64
2022/12/01 10:30:50;;;;;;;8.82;4.22;;;6.00;99.90;;;;;;5036960;28;20025;-65
2022/12/01 10:33:24;;;;;;;12.80;3.65;;;6.00;99.90;;;;;;5038161;28;20022;-64
2022/12/01 10:38:30;;;;;;;12.40;4.68;;;6.10;99.90;;;;;;5834432;23;20053;-63
2022/12/01 10:41:19;;;;;;;9.77;4.70;;;6.10;99.90;;;;;;4991481;28;20042;-64
2022/12/01 10:43:56;;;;;;;13.63;4.65;;;5.90;99.90;;;;;;4999579;28;20060;-64
2022/12/01 10:46:45;;;;;;;10.75;3.88;;;6.00;99.90;;;;;;4999687;28;20104;-64
2022/12/01 10:49:15;;;;;;;9.45;3.65;;;6.00;99.90;;;;;;5013252;28;20087;-65
2022/12/01 10:51:52;;;;;;;8.43;3.53;;;6.20;99.90;;;;;;5005237;28;20026;-64
2022/12/01 10:54:18;;;;;;;14.77;5.35;;;6.20;99.90;;;;;;4988659;28;20038;-64
2022/12/01 10:56:48;;;;;;;11.57;5.25;;;6.20;99.90;;;;;;4993129;28;20049;-65
2022/12/01 10:59:29;;;;;;;12.07;4.47;;;6.20;99.90;;;;;;4994887;28;20037;-65
2022/12/01 11:01:56;;;;;;;;;;;6.30;99.90;;;;;;4987860;28;20100;-65
2022/12/01 11:04:35;;;;;;;20.88;4.93;;;6.40;99.90;;;;;;4986825;28;19948;-65
2022/12/01 11:07:02;;;;;;;7.95;4.47;;;6.40;99.90;;;;;;4981514;28;20021;-66
2022/12/01 11:09:29;;;;;;;10.02;4.00;;;6.40;99.90;;;;;;4989883;28;20064;-65
2022/12/01 11:12:01;;;;;;;10.65;3.90;;;6.50;99.90;;;;;;4988954;28;20029;-65
2022/12/01 11:14:43;;;;;;;10.48;4.10;;;6.60;99.90;;;;;;4996364;28;20679;-65
2022/12/01 11:17:37;;;;;;;26.73;4.88;;;6.60;99.90;;;;;;4990291;28;20026;-65
2022/12/01 11:20:30;;;;;;;13.93;4.65;;;6.60;99.90;;;;;;4985646;28;20122;-66
2022/12/01 11:23:19;;;;;;;8.80;3.90;;;6.70;99.90;;;;;;4943582;28;20036;-64
2022/12/01 11:26:15;;;;;;;8.77;3.45;;;6.70;99.90;;;;;;4999432;28;20030;-65
2022/12/01 11:29:04;;;;;;;8.90;4.20;;;6.70;99.90;;;;;;4977859;28;20443;-65
2022/12/01 11:31:48;;;;;;;10.75;4.35;;;6.80;99.90;;;;;;4975265;28;20042;-68
2022/12/01 11:34:33;;;;;;;11.52;4.22;;;6.80;99.90;;;;;;4990955;28;20030;-68
2022/12/01 11:37:07;;;;;;;11.82;4.80;;;6.80;99.90;;;;;;4981322;28;20023;-66
2022/12/01 11:39:40;;;;;;;13.38;4.85;;;6.90;99.90;;;;;;4982133;28;20032;-65
2022/12/01 11:42:27;;;;;;;13.57;4.63;;;6.90;99.90;;;;;;4975984;28;20034;-67
2022/12/01 11:45:33;;;;;;;11.85;4.80;;;6.90;99.90;;;;;;4978884;28;20030;-63
2022/12/01 11:48:11;;;;;;;21.35;4.90;;;6.70;99.90;;;;;;4988010;28;20050;-63
2022/12/01 11:50:41;;;;;;;19.08;4.55;;;6.60;99.90;;;;;;4999121;28;20038;-63
2022/12/01 11:53:31;;;;;;;9.17;4.77;;;6.60;99.90;;;;;;5009713;28;20545;-63
2022/12/01 11:56:21;;;;;;;18.95;5.20;;;6.70;99.90;;;;;;4995820;28;20034;-63
2022/12/01 11:58:53;;;;;;;8.88;4.03;;;6.60;99.90;;;;;;4991758;28;20046;-64
2022/12/01 12:01:30;;;;;;;9.40;3.95;;;6.50;99.90;;;;;;4978660;28;20080;-65
2022/12/01 12:04:27;;;;;;;12.27;5.00;;;6.50;99.90;;;;;;4971208;28;20037;-64
2022/12/01 12:07:25;;;;;;;11.63;4.57;;;6.40;99.90;;;;;;5002567;28;20064;-66
2022/12/01 12:10:12;;;;;;;7.97;4.10;;;6.30;99.90;;;;;;4986804;28;20034;-66
2022/12/01 12:13:32;;;;;;;11.57;3.58;;;6.30;99.90;;;;;;4999791;28;20041;-65
2022/12/01 12:16:41;;;;;;;13.30;3.33;;;6.40;99.90;;;;;;4970789;28;20033;-65
2022/12/01 12:19:22;;;;;;;11.93;5.30;;;6.50;99.90;;;;;;4973386;28;20030;-65
2022/12/01 12:22:14;;;;;;;7.85;3.05;;;6.50;99.90;;;;;;5001480;28;20448;-65
2022/12/01 12:25:18;;;;;;;8.13;3.72;;;6.50;99.90;;;;;;4999427;28;20053;-65
2022/12/01 12:28:11;;;;;;;13.75;4.57;;;6.50;99.90;;;;;;4972934;28;20113;-65
2022/12/01 12:31:20;;;;;;;7.95;4.43;;;6.60;99.90;;;;;;4997940;28;20092;-65
2022/12/01 12:34:31;;;;;;;14.38;5.32;;;6.60;99.90;;;;;;5009442;28;20038;-65
2022/12/01 12:37:44;;;;;;;23.13;5.45;;;6.50;99.90;;;;;;4992002;28;20037;-65
2022/12/01 12:40:25;;;;;;;13.55;4.10;;;6.40;99.90;;;;;;4986120;28;20072;-65
2022/12/01 12:43:28;;;;;;;8.23;3.78;;;6.30;99.90;;;;;;5003137;28;20117;-66
2022/12/01 12:46:07;;;;;;;12.95;4.88;;;6.20;99.90;;;;;;4995773;28;20034;-65
2022/12/01 12:49:21;;;;;;;10.65;4.28;;;6.30;99.90;;;;;;4990655;28;20060;-65
2022/12/01 12:52:11;;;;;;;8.00;4.22;;;6.20;99.90;;;;;;5005070;28;20169;-66
2022/12/01 12:55:18;;;;;;;9.40;4.53;;;6.20;99.90;;;;;;4972400;28;20734;-66
2022/12/01 12:57:52;;;;;;;10.50;4.00;;;6.20;99.90;;;;;;5002854;28;20038;-65
2022/12/01 13:00:25;;;;;;;10.52;4.22;;;6.20;99.90;;;;;;5003401;28;20029;-66
2022/12/01 13:03:33;;;;;;;13.30;5.00;;;6.30;99.90;;;;;;4985346;28;20034;-66
2022/12/01 13:06:10;;;;;;;11.98;5.53;;;6.30;99.90;;;;;;4985720;28;20023;-65
2022/12/01 13:08:46;;;;;;;12.30;3.83;;;6.20;99.90;;;;;;4990993;28;20048;-66
2022/12/01 13:11:50;;;;;;;10.40;4.75;;;6.20;99.90;;;;;;4984354;28;20097;-66
2022/12/01 13:14:31;;;;;;;10.18;4.15;;;6.20;99.90;;;;;;4929864;28;20049;-66
2022/12/01 13:17:19;;;;;;;10.05;3.90;;;6.30;99.90;;;;;;4991040;28;20035;-64
2022/12/01 13:19:46;;;;;;;13.95;5.05;;;6.30;99.90;;;;;;4986809;28;20027;-66
2022/12/01 13:22:15;;;;;;;11.27;4.63;;;6.40;99.90;;;;;;5002533;28;20057;-66
2022/12/01 13:24:41;;;;;;;8.88;3.58;;;6.40;99.90;;;;;;4979042;28;20116;-65
2022/12/01 13:27:09;;;;;;;12.48;4.53;;;6.50;99.90;;;;;;4984569;28;20076;-65
2022/12/01 13:29:38;;;;;;;9.02;3.83;;;6.50;99.90;;;;;;4999648;28;20117;-65
2022/12/01 13:32:06;;;;;;;8.90;3.05;;;6.40;99.90;;;;;;4998530;28;20100;-65